Ottawa Lake, MI (49267)

9:37 PM EDT on April 20, 2015 (GMT -0400)
APRSWXNET | | Change Station
CLOSE
Current Station
Personal Weather Station
Location: Sylvania, OH
Elevation: 669 ft
Nearby Weather Stations

Elev 669 ft 41.72 °N, 83.73 °W | Updated 26 minutes ago

Overcast
Overcast
46 °F
Feels Like 46 °F
N
3
Wind Variable Wind from WSW
Gusts 10.0 mph

Today
High -- | Low -- °F
--% Chance of Precip.
Yesterday
High -- | Low -- °F
Precip. -- in
6:47 AM 8:20 PM
Waxing Crescent, 7% visible
Pressure 29.58 in
Visibility 10.0 miles
Clouds Overcast 6500 ft
Windchill 46 °F
Dew Point 40 °F
Humidity 78%
Rainfall in
Snow Depth Not available.
UV 0 out of 12
Pollen 7.00 out of 12
Air Quality Not available.
Flu Activity Regional
METAR KDUH 210114Z AUTO 25008G15KT 10SM OVC065 08/04 A2958 RMK AO2

More Conditions Fewer Conditions

Pressure 29.58 in
Visibility 10.0 miles
Clouds Overcast 6500 ft
Windchill 46 °F
Dew Point 40 °F
Humidity 78%
Rainfall in
Snow Depth Not available.
UV 0 out of 12
Pollen 7.00 out of 12
Air Quality Not available.
Flu Activity Regional
METAR KDUH 210114Z AUTO 25008G15KT 10SM OVC065 08/04 A2958 RMK AO2

More Conditions Fewer Conditions

10-Day Weather Forecast

Almanac

Astronomy

Apr. 20, 2015 Rise Set
Actual Time
Civil Twilight
Nautical Twilight
Astronomical Twilight
Moon
Length of Visible Light
Length of Day
Tomorrow will be .
, % of the Moon is Illuminated

Today's Extremes

State Highs State Lows

Community

WunderPhotos

Upload Photos

1,815,276 photos uploaded!

WunderBlogs® & News

Nearby

Air Quality

  Air Quality AQ Index Pollutant
Not available.

Snow Depth

Station Depth Elevation

Earthquake Activity

City Distance Mag. Time & Date
Minimum magnitude displayed is 2.5.

Coastal Water Temperatures

Place Temperature

Stations

Nearby Weather Stations

Station Location Temp. Windchill Dew Point Humidity Wind Precip. Elev Updated Type